Time;durP1;ratioP1;P1;durP2;ratioP2;P2;SDS_P1;SDS_P2;PMS_P1;PMS_P2;Temp;Humidity;BMP_temperature;BMP_pressure;BME280_temperature;BME280_humidity;BME280_pressure;Samples;Min_cycle;Max_cycle;Signal;HPM_P1;HPM_P2
2021/08/30 00:00:51;;;;;;;0.6;0.3;;;;;;;;;;;;;
2021/08/30 00:03:16;;;;;;;0.7;0.4;;;;;;;;;;;;;
2021/08/30 00:05:41;;;;;;;0.9;0.3;;;;;;;;;;;;;
2021/08/30 00:08:06;;;;;;;0.4;0.3;;;;;;;;;;;;;
2021/08/30 00:10:32;;;;;;;0.2;0.2;;;;;;;;;;;;;
2021/08/30 00:12:57;;;;;;;0.7;0.3;;;;;;;;;;;;;
2021/08/30 00:15:22;;;;;;;0.3;0.3;;;;;;;;;;;;;
2021/08/30 00:17:47;;;;;;;1.3;0.4;;;;;;;;;;;;;
2021/08/30 00:20:12;;;;;;;0.4;0.2;;;;;;;;;;;;;
2021/08/30 00:22:37;;;;;;;1.3;0.4;;;;;;;;;;;;;
2021/08/30 00:25:03;;;;;;;1;0.4;;;;;;;;;;;;;
2021/08/30 00:27:28;;;;;;;0.3;0.3;;;;;;;;;;;;;
2021/08/30 00:29:53;;;;;;;0.5;0.3;;;;;;;;;;;;;
2021/08/30 00:32:18;;;;;;;0.3;0.3;;;;;;;;;;;;;
2021/08/30 00:34:43;;;;;;;0.3;0.3;;;;;;;;;;;;;
2021/08/30 00:37:08;;;;;;;0.5;0.3;;;;;;;;;;;;;
2021/08/30 00:39:33;;;;;;;0.3;0.3;;;;;;;;;;;;;
2021/08/30 00:41:58;;;;;;;0.7;0.4;;;;;;;;;;;;;
2021/08/30 00:44:23;;;;;;;0.3;0.3;;;;;;;;;;;;;
2021/08/30 00:46:49;;;;;;;0.4;0.2;;;;;;;;;;;;;
2021/08/30 00:49:14;;;;;;;0.2;0.2;;;;;;;;;;;;;
2021/08/30 00:51:39;;;;;;;0.2;0.2;;;;;;;;;;;;;
2021/08/30 00:54:04;;;;;;;1.4;0.3;;;;;;;;;;;;;
2021/08/30 00:56:43;;;;;;;0.2;0.1;;;;;;;;;;;;;
2021/08/30 00:59:09;;;;;;;0.3;0.3;;;;;;;;;;;;;
2021/08/30 01:01:33;;;;;;;0.1;0.1;;;;;;;;;;;;;
2021/08/30 01:03:58;;;;;;;0.2;0.2;;;;;;;;;;;;;
2021/08/30 01:06:23;;;;;;;0.6;0.3;;;;;;;;;;;;;
2021/08/30 01:08:49;;;;;;;1.3;0.3;;;;;;;;;;;;;
2021/08/30 01:11:14;;;;;;;0.2;0.2;;;;;;;;;;;;;
2021/08/30 01:13:39;;;;;;;0.4;0.3;;;;;;;;;;;;;
2021/08/30 01:16:05;;;;;;;0.2;0.1;;;;;;;;;;;;;
2021/08/30 01:18:30;;;;;;;1.3;0.3;;;;;;;;;;;;;
2021/08/30 01:20:55;;;;;;;0.2;0.2;;;;;;;;;;;;;
2021/08/30 01:23:20;;;;;;;0.3;0.2;;;;;;;;;;;;;
2021/08/30 01:25:46;;;;;;;1.1;0.5;;;;;;;;;;;;;
2021/08/30 01:28:11;;;;;;;0.7;0.4;;;;;;;;;;;;;
2021/08/30 01:30:37;;;;;;;0.4;0.4;;;;;;;;;;;;;
2021/08/30 01:33:02;;;;;;;0.7;0.3;;;;;;;;;;;;;
2021/08/30 01:35:26;;;;;;;0.1;0.1;;;;;;;;;;;;;
2021/08/30 01:37:51;;;;;;;0.2;0.2;;;;;;;;;;;;;
2021/08/30 01:40:17;;;;;;;0.5;0.3;;;;;;;;;;;;;
2021/08/30 01:42:42;;;;;;;0.3;0.3;;;;;;;;;;;;;
2021/08/30 01:45:07;;;;;;;0.4;0.2;;;;;;;;;;;;;
2021/08/30 01:47:32;;;;;;;0.3;0.3;;;;;;;;;;;;;
2021/08/30 01:50:04;;;;;;;0.6;0.3;;;;;;;;;;;;;
2021/08/30 01:52:22;;;;;;;0.6;0.4;;;;;;;;;;;;;
2021/08/30 01:54:49;;;;;;;0.2;0.2;;;;;;;;;;;;;
2021/08/30 01:57:19;;;;;;;0.2;0.2;;;;;;;;;;;;;
2021/08/30 02:02:04;;;;;;;0.4;0.2;;;;;;;;;;;;;
2021/08/30 02:04:30;;;;;;;0.5;0.3;;;;;;;;;;;;;
2021/08/30 02:06:55;;;;;;;0.4;0.3;;;;;;;;;;;;;
2021/08/30 02:09:20;;;;;;;0.4;0.3;;;;;;;;;;;;;
2021/08/30 02:11:45;;;;;;;0.5;0.4;;;;;;;;;;;;;
2021/08/30 02:14:11;;;;;;;0.4;0.4;;;;;;;;;;;;;
2021/08/30 02:16:36;;;;;;;0.1;0.1;;;;;;;;;;;;;
2021/08/30 02:19:02;;;;;;;0.8;0.2;;;;;;;;;;;;;
2021/08/30 02:21:27;;;;;;;0.3;0.2;;;;;;;;;;;;;
2021/08/30 02:23:52;;;;;;;0.2;0.2;;;;;;;;;;;;;
2021/08/30 02:26:18;;;;;;;0.5;0.2;;;;;;;;;;;;;
2021/08/30 02:28:43;;;;;;;0.3;0.3;;;;;;;;;;;;;
2021/08/30 02:31:08;;;;;;;0.4;0.3;;;;;;;;;;;;;
2021/08/30 02:33:33;;;;;;;0.1;0.1;;;;;;;;;;;;;
2021/08/30 02:36:03;;;;;;;0.6;0.6;;;;;;;;;;;;;
2021/08/30 02:38:23;;;;;;;0.7;0.5;;;;;;;;;;;;;
2021/08/30 02:40:48;;;;;;;0.5;0.4;;;;;;;;;;;;;
2021/08/30 02:43:13;;;;;;;0.3;0.3;;;;;;;;;;;;;
2021/08/30 02:45:38;;;;;;;0.4;0.2;;;;;;;;;;;;;
2021/08/30 02:48:04;;;;;;;0.2;0.2;;;;;;;;;;;;;
2021/08/30 02:50:29;;;;;;;0.2;0.2;;;;;;;;;;;;;
2021/08/30 02:52:54;;;;;;;0.8;0.2;;;;;;;;;;;;;
2021/08/30 02:55:19;;;;;;;1.7;0.6;;;;;;;;;;;;;
2021/08/30 02:57:48;;;;;;;0.4;0.2;;;;;;;;;;;;;
2021/08/30 03:00:09;;;;;;;0.8;0.2;;;;;;;;;;;;;
2021/08/30 03:02:34;;;;;;;0.2;0.2;;;;;;;;;;;;;
2021/08/30 03:04:59;;;;;;;0.5;0.2;;;;;;;;;;;;;
2021/08/30 03:07:24;;;;;;;0.2;0.2;;;;;;;;;;;;;
2021/08/30 03:09:49;;;;;;;0.2;0.1;;;;;;;;;;;;;
2021/08/30 03:12:15;;;;;;;1.1;0.2;;;;;;;;;;;;;
2021/08/30 03:14:40;;;;;;;0.3;0.3;;;;;;;;;;;;;
2021/08/30 03:17:05;;;;;;;0.8;0.4;;;;;;;;;;;;;
2021/08/30 03:19:30;;;;;;;0.3;0.3;;;;;;;;;;;;;
2021/08/30 03:21:55;;;;;;;0.2;0.2;;;;;;;;;;;;;
2021/08/30 03:24:21;;;;;;;0.2;0.2;;;;;;;;;;;;;
2021/08/30 03:26:46;;;;;;;0.2;0.2;;;;;;;;;;;;;
2021/08/30 03:29:11;;;;;;;0.3;0.1;;;;;;;;;;;;;
2021/08/30 03:31:37;;;;;;;0.2;0.2;;;;;;;;;;;;;
2021/08/30 03:34:01;;;;;;;0.3;0.2;;;;;;;;;;;;;
2021/08/30 03:36:26;;;;;;;1.3;0.5;;;;;;;;;;;;;
2021/08/30 03:38:51;;;;;;;0.3;0.3;;;;;;;;;;;;;
2021/08/30 03:41:16;;;;;;;0.8;0.4;;;;;;;;;;;;;
2021/08/30 03:43:41;;;;;;;0.8;0.3;;;;;;;;;;;;;
2021/08/30 03:46:06;;;;;;;2;0.6;;;;;;;;;;;;;
2021/08/30 03:48:31;;;;;;;0.4;0.3;;;;;;;;;;;;;
2021/08/30 03:50:57;;;;;;;1.2;0.4;;;;;;;;;;;;;
2021/08/30 03:53:22;;;;;;;0.8;0.2;;;;;;;;;;;;;
2021/08/30 03:55:47;;;;;;;0.3;0.3;;;;;;;;;;;;;
2021/08/30 03:58:12;;;;;;;0.6;0.2;;;;;;;;;;;;;
2021/08/30 04:02:31;;;;;;;1.2;0.3;;;;;;;12.09;96.10352;935.8553;;;;
2021/08/30 04:04:56;;;;;;;0.3;0.2;;;;;;;12.2;96.2207;935.8903;;;;
2021/08/30 04:07:21;;;;;;;0.3;0.2;;;;;;;12.15;95.97949;935.8536;;;;
2021/08/30 04:09:49;;;;;;;0.5;0.5;;;;;;;12.13;95.95313;935.8353;;;;
2021/08/30 04:12:11;;;;;;;0.1;0.1;;;;;;;12.11;95.70801;935.8633;;;;
2021/08/30 04:14:36;;;;;;;0.1;0.1;;;;;;;12.1;95.77441;935.8649;;;;
2021/08/30 04:17:01;;;;;;;0.4;0.3;;;;;;;12.13;95.6875;935.7827;;;;
2021/08/30 04:19:27;;;;;;;0.4;0.2;;;;;;;12.2;95.60156;935.8281;;;;
2021/08/30 04:21:52;;;;;;;0.5;0.3;;;;;;;12.27;95.06543;935.8499;;;;
2021/08/30 04:24:17;;;;;;;0.5;0.3;;;;;;;12.1;95.91016;935.8497;;;;
2021/08/30 04:26:43;;;;;;;0.2;0.2;;;;;;;12.23;95.50488;935.8347;;;;
2021/08/30 04:29:08;;;;;;;0.3;0.2;;;;;;;12.18;95.43555;935.7722;;;;
2021/08/30 04:31:34;;;;;;;0.2;0.2;;;;;;;12.24;95.33496;935.8354;;;;
2021/08/30 04:35:14;;;;;;;0.3;0.2;;;;;;;12.15;95.97949;935.7332;;;;
2021/08/30 04:37:45;;;;;;;1;0.4;;;;;;;12.13;96.32129;935.8122;;;;
2021/08/30 04:40:10;;;;;;;1.1;1.1;;;;;;;12.11;96.7168;935.8242;;;;
2021/08/30 04:42:35;;;;;;;0.6;0.6;;;;;;;12.11;96.85156;935.8448;;;;
2021/08/30 04:45:00;;;;;;;0.7;0.7;;;;;;;12.16;96.6582;935.8281;;;;
2021/08/30 04:47:25;;;;;;;0.5;0.5;;;;;;;12.24;96.36621;935.7892;;;;
2021/08/30 04:49:50;;;;;;;0.7;0.5;;;;;;;12.21;96.49609;935.8041;;;;
2021/08/30 04:52:15;;;;;;;0.4;0.4;;;;;;;12.25;95.93262;935.8315;;;;
2021/08/30 04:54:41;;;;;;;1.2;0.4;;;;;;;12.13;96.67676;935.8696;;;;
2021/08/30 04:57:06;;;;;;;0.3;0.3;;;;;;;12.12;97.19727;935.8018;;;;
2021/08/30 04:59:31;;;;;;;1.1;0.6;;;;;;;12.05;96.47363;935.8521;;;;
2021/08/30 05:01:56;;;;;;;0.5;0.5;;;;;;;12.13;95.88379;935.8752;;;;
2021/08/30 05:04:21;;;;;;;0.7;0.5;;;;;;;12.25;95.45117;935.8283;;;;
2021/08/30 05:06:46;;;;;;;1.3;0.6;;;;;;;12.24;95.35742;935.8691;;;;
2021/08/30 05:09:11;;;;;;;0.5;0.3;;;;;;;12.32;95.43066;935.7875;;;;
2021/08/30 05:11:49;;;;;;;0.4;0.2;;;;;;;12.29;95.12695;935.7516;;;;
2021/08/30 05:14:15;;;;;;;1.7;0.9;;;;;;;12.22;95.98242;935.7509;;;;
2021/08/30 05:16:40;;;;;;;0.5;0.5;;;;;;;12.14;96.65332;935.7651;;;;
2021/08/30 05:19:05;;;;;;;0.7;0.7;;;;;;;12.2;96.57617;935.7371;;;;
2021/08/30 05:21:32;;;;;;;0.6;0.6;;;;;;;12.23;96.92383;935.7374;;;;
2021/08/30 05:23:57;;;;;;;0.4;0.4;;;;;;;12.22;96.5;935.7222;;;;
2021/08/30 05:26:23;;;;;;;1.5;0.7;;;;;;;12.35;96.18359;935.6805;;;;
2021/08/30 05:28:48;;;;;;;0.6;0.4;;;;;;;12.32;96.51953;935.6925;;;;
2021/08/30 05:31:15;;;;;;;0.8;0.4;;;;;;;12.4;95.84082;935.6309;;;;
2021/08/30 05:33:40;;;;;;;5.4;2.8;;;;;;;12.44;95.26563;935.6127;;;;
2021/08/30 05:36:05;;;;;;;3.3;1.7;;;;;;;12.48;95.13574;935.6613;;;;
2021/08/30 05:38:30;;;;;;;3.9;1.9;;;;;;;12.6;94.26465;935.6994;;;;
2021/08/30 05:40:55;;;;;;;4.3;2.5;;;;;;;12.58;94.30664;935.598;;;;
2021/08/30 05:43:20;;;;;;;4.2;2.8;;;;;;;12.6;95.15918;935.5613;;;;
2021/08/30 05:48:10;;;;;;;4;2.8;;;;;;;12.57;96.13086;935.6212;;;;
2021/08/30 05:50:35;;;;;;;3.4;2.1;;;;;;;12.53;96.63672;935.5734;;;;
2021/08/30 05:53:01;;;;;;;0.8;0.7;;;;;;;12.55;95.45898;935.6245;;;;
2021/08/30 05:55:26;;;;;;;1.3;1.2;;;;;;;12.58;95.43262;935.6364;;;;
2021/08/30 05:57:51;;;;;;;2.3;1.4;;;;;;;12.72;94.99219;935.6227;;;;
2021/08/30 06:00:16;;;;;;;1.2;1.1;;;;;;;12.77;94.66016;935.6577;;;;
2021/08/30 06:02:41;;;;;;;1.4;1.3;;;;;;;12.78;94.3291;935.6664;;;;
2021/08/30 06:05:07;;;;;;;3.3;2;;;;;;;12.65;95.17188;935.5773;;;;
2021/08/30 06:07:32;;;;;;;2.1;1;;;;;;;12.65;95.50391;935.6397;;;;
2021/08/30 06:09:57;;;;;;;2.2;2;;;;;;;12.54;95.68848;935.6157;;;;
2021/08/30 06:12:23;;;;;;;0.6;0.6;;;;;;;12.63;95.75488;935.559;;;;
2021/08/30 06:14:48;;;;;;;0.5;0.5;;;;;;;12.77;94.93555;935.6721;;;;
2021/08/30 06:17:45;;;;;;;0.3;0.3;;;;;;;12.79;95.11133;935.6128;;;;
2021/08/30 06:20:12;;;;;;;0.7;0.7;;;;;;;12.91;95.08887;935.5703;;;;
2021/08/30 06:22:37;;;;;;;0.9;0.7;;;;;;;12.98;95.02637;935.4966;;;;
2021/08/30 06:25:03;;;;;;;0.7;0.7;;;;;;;13.15;93.60547;935.6239;;;;
2021/08/30 06:27:29;;;;;;;0.9;0.9;;;;;;;13.16;93.49023;935.6431;;;;
2021/08/30 06:29:55;;;;;;;0.6;0.6;;;;;;;13.21;93.8584;935.6367;;;;
2021/08/30 06:32:20;;;;;;;0.7;0.5;;;;;;;13.35;92.97949;935.5475;;;;
2021/08/30 06:34:45;;;;;;;1.7;0.7;;;;;;;13.31;93.11133;935.563;;;;
2021/08/30 06:37:11;;;;;;;0.8;0.7;;;;;;;13.27;92.30957;935.5536;;;;
2021/08/30 06:39:36;;;;;;;1.6;1.5;;;;;;;13.37;92.47949;935.5203;;;;
2021/08/30 06:42:01;;;;;;;0.5;0.5;;;;;;;13.32;92.44727;935.6124;;;;
2021/08/30 06:45:45;;;;;;;3.7;1.3;;;;;;;13.33;93.4375;935.614;;;;
2021/08/30 06:48:10;;;;;;;0.7;0.5;;;;;;;13.34;92.64648;935.5508;;;;
2021/08/30 06:50:36;;;;;;;0.2;0.2;;;;;;;13.26;92.30762;935.6168;;;;
2021/08/30 06:53:01;;;;;;;1.1;0.6;;;;;;;13.26;93.44434;935.5569;;;;
2021/08/30 06:55:27;;;;;;;1.8;1.7;;;;;;;13.3;93.09863;935.6006;;;;
2021/08/30 06:57:52;;;;;;;1;1;;;;;;;13.39;92.23047;935.5905;;;;
2021/08/30 07:00:18;;;;;;;0.7;0.7;;;;;;;13.47;91.74219;935.6047;;;;
2021/08/30 07:02:43;;;;;;;0.9;0.9;;;;;;;13.57;92.00488;935.6105;;;;
2021/08/30 07:05:08;;;;;;;0.7;0.7;;;;;;;13.68;90.14258;935.6556;;;;
2021/08/30 07:07:33;;;;;;;1.5;0.5;;;;;;;13.7;90.06641;935.6083;;;;
2021/08/30 07:10:00;;;;;;;1.1;0.6;;;;;;;13.78;90.9668;935.6262;;;;
2021/08/30 07:12:25;;;;;;;0.7;0.7;;;;;;;13.84;90.7959;935.5692;;;;
2021/08/30 07:15:54;;;;;;;1.4;1.3;;;;;;;13.84;90.3125;935.6476;;;;
2021/08/30 07:18:53;;;;;;;1.6;1.5;;;;;;;13.92;89.93848;935.691;;;;
2021/08/30 07:21:20;;;;;;;0.8;0.8;;;;;;;13.99;89.05566;935.6417;;;;
2021/08/30 07:23:45;;;;;;;0.8;0.8;;;;;;;14.06;88.16113;935.7214;;;;
2021/08/30 07:26:10;;;;;;;0.7;0.7;;;;;;;14.16;88.54785;935.7446;;;;
2021/08/30 07:28:36;;;;;;;1.4;0.7;;;;;;;14.21;87.71777;935.7618;;;;
2021/08/30 07:31:01;;;;;;;1;0.6;;;;;;;14.27;88.04395;935.7656;;;;
2021/08/30 07:33:26;;;;;;;0.8;0.5;;;;;;;14.3;88.64648;935.7517;;;;
2021/08/30 07:35:51;;;;;;;0.6;0.6;;;;;;;14.16;89.5498;935.8127;;;;
2021/08/30 07:38:16;;;;;;;1;0.9;;;;;;;14.18;89.26563;935.8206;;;;
2021/08/30 07:40:41;;;;;;;0.6;0.6;;;;;;;14.14;88.33691;935.7472;;;;
2021/08/30 07:43:07;;;;;;;0.7;0.7;;;;;;;14.24;88.25293;935.8876;;;;
2021/08/30 07:45:32;;;;;;;2;0.7;;;;;;;14.11;89.93359;935.8939;;;;
2021/08/30 07:48:32;;;;;;;0.6;0.6;;;;;;;14;91.10645;935.9235;;;;
2021/08/30 07:50:57;;;;;;;0.9;0.7;;;;;;;14.07;91.12109;935.8855;;;;
2021/08/30 07:53:26;;;;;;;0.4;0.4;;;;;;;14.13;89.92383;935.8962;;;;
2021/08/30 07:55:48;;;;;;;0.7;0.6;;;;;;;14.16;90.15918;935.9489;;;;
2021/08/30 07:58:15;;;;;;;0.9;0.7;;;;;;;14.27;90.72754;936.009;;;;
2021/08/30 08:00:38;;;;;;;0.6;0.6;;;;;;;14.38;90.59766;936.0193;;;;
2021/08/30 08:03:04;;;;;;;1.2;0.5;;;;;;;14.4;89.3252;936.0808;;;;
2021/08/30 08:05:29;;;;;;;1;0.6;;;;;;;14.5;88.70996;936.079;;;;
2021/08/30 08:07:54;;;;;;;1.6;0.7;;;;;;;14.47;88.20898;936.0239;;;;
2021/08/30 08:10:19;;;;;;;0.6;0.6;;;;;;;14.5;88.2832;936.1614;;;;
2021/08/30 08:12:45;;;;;;;0.8;0.8;;;;;;;14.45;88.81543;936.1138;;;;
2021/08/30 08:16:13;;;;;;;0.8;0.8;;;;;;;14.41;89.14063;936.1552;;;;
2021/08/30 08:18:42;;;;;;;1.7;1.3;;;;;;;14.35;88.80469;936.2231;;;;
2021/08/30 08:21:07;;;;;;;2.4;1.5;;;;;;;14.42;88.85645;936.2106;;;;
2021/08/30 08:24:13;;;;;;;1.4;1.2;;;;;;;14.4;89.96777;936.217;;;;
2021/08/30 08:27:00;;;;;;;3;1.9;;;;;;;14.17;90.91211;936.2394;;;;
2021/08/30 08:29:24;;;;;;;1.5;0.7;;;;;;;14.33;90.63281;936.2159;;;;
2021/08/30 08:31:49;;;;;;;0.6;0.6;;;;;;;14.38;89.46875;936.2308;;;;
2021/08/30 08:34:14;;;;;;;2.9;0.6;;;;;;;14.44;89.75879;936.2597;;;;
2021/08/30 08:36:40;;;;;;;1.4;0.5;;;;;;;14.49;89.3418;936.2481;;;;
2021/08/30 08:39:04;;;;;;;0.8;0.8;;;;;;;14.48;89.66211;936.2274;;;;
2021/08/30 08:41:29;;;;;;;1.7;0.8;;;;;;;14.55;89.9209;936.2731;;;;
2021/08/30 08:43:54;;;;;;;2.5;2.3;;;;;;;14.52;90.37305;936.3024;;;;
2021/08/30 08:46:19;;;;;;;1.8;1.7;;;;;;;14.53;89.62695;936.2004;;;;
2021/08/30 08:48:45;;;;;;;2.6;2.1;;;;;;;14.39;89.86426;936.1434;;;;
2021/08/30 08:51:10;;;;;;;2.5;1.7;;;;;;;14.28;90.89941;936.1859;;;;
2021/08/30 08:53:36;;;;;;;1.9;1.6;;;;;;;14.4;91.38477;936.157;;;;
2021/08/30 08:56:02;;;;;;;2.9;1.3;;;;;;;14.51;91.55762;936.207;;;;
2021/08/30 08:58:27;;;;;;;3.7;1.1;;;;;;;14.61;89.49219;936.1356;;;;
2021/08/30 09:00:52;;;;;;;3.2;2;;;;;;;14.79;89.94434;936.0932;;;;
2021/08/30 09:03:17;;;;;;;3;1.9;;;;;;;14.98;89.24707;935.9889;;;;
2021/08/30 09:05:42;;;;;;;2.2;1.8;;;;;;;15.14;89.98242;936.0611;;;;
2021/08/30 09:08:07;;;;;;;2.6;1.8;;;;;;;15.25;90.37402;936.0256;;;;
2021/08/30 09:10:37;;;;;;;1.5;0.9;;;;;;;15.22;88.84473;935.9811;;;;
2021/08/30 09:12:57;;;;;;;1.9;1;;;;;;;15.19;89.12793;936.0148;;;;
2021/08/30 09:16:08;;;;;;;1;0.9;;;;;;;15.24;89.23145;935.9832;;;;
2021/08/30 09:18:35;;;;;;;1;0.8;;;;;;;15.31;89.86719;936.0778;;;;
2021/08/30 09:20:59;;;;;;;0.9;0.9;;;;;;;15.31;90.11035;936.0778;;;;
2021/08/30 09:23:24;;;;;;;0.9;0.9;;;;;;;15.24;90.16602;936.1083;;;;
2021/08/30 09:25:49;;;;;;;1.2;1;;;;;;;15.16;90.91113;936.1547;;;;
2021/08/30 09:28:14;;;;;;;1.3;1.2;;;;;;;14.98;89.62598;936.2134;;;;
2021/08/30 09:30:39;;;;;;;1.7;1.2;;;;;;;15.01;91.30566;936.2411;;;;
2021/08/30 09:33:05;;;;;;;1.6;0.9;;;;;;;15.04;91.24219;936.2034;;;;
2021/08/30 09:35:30;;;;;;;0.9;0.8;;;;;;;15.08;88.63086;936.2455;;;;
2021/08/30 09:37:55;;;;;;;1.2;1.1;;;;;;;14.97;89.00098;936.2559;;;;
2021/08/30 09:40:21;;;;;;;2.6;1.1;;;;;;;14.98;90.06641;936.2294;;;;
2021/08/30 09:42:46;;;;;;;1.7;1.6;;;;;;;14.81;90.66504;936.1763;;;;
2021/08/30 09:45:11;;;;;;;1.9;0.9;;;;;;;14.87;90.53613;936.1913;;;;
2021/08/30 09:47:36;;;;;;;1.6;1.2;;;;;;;14.89;89.52637;936.1959;;;;
2021/08/30 09:50:01;;;;;;;0.8;0.8;;;;;;;14.85;90.41699;936.1339;;;;
2021/08/30 09:52:26;;;;;;;1.4;0.9;;;;;;;14.93;89.99512;936.137;;;;
2021/08/30 09:54:51;;;;;;;2.8;1.5;;;;;;;14.97;88.60938;936.1838;;;;
2021/08/30 09:57:16;;;;;;;2.4;0.9;;;;;;;14.96;87.7207;936.1398;;;;
2021/08/30 09:59:41;;;;;;;1.1;0.7;;;;;;;15.05;87.79492;936.0765;;;;
2021/08/30 10:02:08;;;;;;;1.3;0.9;;;;;;;15.19;89.41602;936.0364;;;;
2021/08/30 10:04:33;;;;;;;2.2;1;;;;;;;15.17;89.97656;936.1258;;;;
2021/08/30 10:06:58;;;;;;;1.1;1;;;;;;;15.1;88.02539;936.0945;;;;
2021/08/30 10:09:23;;;;;;;0.6;0.6;;;;;;;14.91;87.81348;936.0345;;;;
2021/08/30 10:11:50;;;;;;;1.5;1.3;;;;;;;15.09;86.66211;936.0657;;;;
2021/08/30 10:14:14;;;;;;;0.9;0.9;;;;;;;15.14;86.82031;936.0251;;;;
2021/08/30 10:16:39;;;;;;;0.4;0.4;;;;;;;15.09;87.41113;936.0031;;;;
2021/08/30 10:19:04;;;;;;;0.7;0.7;;;;;;;15.3;87.25684;936.0168;;;;
2021/08/30 10:21:31;;;;;;;0.9;0.6;;;;;;;15.56;86.67188;936.0694;;;;
2021/08/30 10:23:55;;;;;;;3;0.9;;;;;;;15.3;88.20215;935.972;;;;
2021/08/30 10:26:22;;;;;;;0.7;0.7;;;;;;;15.69;88.45508;936.0858;;;;
2021/08/30 10:28:46;;;;;;;0.6;0.6;;;;;;;15.95;87.86035;936.129;;;;
2021/08/30 10:31:11;;;;;;;0.4;0.4;;;;;;;16.25;85.00684;936.1177;;;;
2021/08/30 10:33:36;;;;;;;0.8;0.4;;;;;;;16.61;81.42773;936.0936;;;;
2021/08/30 10:36:01;;;;;;;0.3;0.3;;;;;;;16.75;81.91699;936.1552;;;;
2021/08/30 10:38:26;;;;;;;0.3;0.3;;;;;;;17.02;82.94043;936.2119;;;;
2021/08/30 10:40:51;;;;;;;0.3;0.3;;;;;;;17.06;79.81836;936.1696;;;;
2021/08/30 10:43:29;;;;;;;1;0.8;;;;;;;17.1;80.90625;936.1638;;;;
2021/08/30 10:45:56;;;;;;;0.4;0.4;;;;;;;16.95;83.18359;936.2525;;;;
2021/08/30 10:48:18;;;;;;;0.7;0.4;;;;;;;16.92;80.86133;936.2104;;;;
2021/08/30 10:50:43;;;;;;;0.5;0.5;;;;;;;16.87;80.58496;936.2299;;;;
2021/08/30 10:53:08;;;;;;;0.5;0.3;;;;;;;16.73;82.16992;936.322;;;;
2021/08/30 10:55:33;;;;;;;0.5;0.5;;;;;;;16.59;83.46289;936.3472;;;;
2021/08/30 10:57:59;;;;;;;0.7;0.6;;;;;;;16.47;83.55371;936.3211;;;;
2021/08/30 11:00:24;;;;;;;0.7;0.7;;;;;;;16.3;83.68555;936.3354;;;;
2021/08/30 11:02:57;;;;;;;2.1;0.9;;;;;;;15.63;86.28223;936.3386;;;;
2021/08/30 11:05:21;;;;;;;0.5;0.5;;;;;;;15.25;91.00879;936.4331;;;;
2021/08/30 11:07:46;;;;;;;0.6;0.5;;;;;;;15.31;90.49121;936.2849;;;;
2021/08/30 11:10:12;;;;;;;0.6;0.5;;;;;;;15.13;88.83789;936.512;;;;
2021/08/30 11:12:37;;;;;;;2.3;1.4;;;;;;;14.65;91.40332;936.4272;;;;
2021/08/30 11:15:02;;;;;;;2.1;0.7;;;;;;;14.52;91.97656;936.5515;;;;
2021/08/30 11:19:52;;;;;;;13.1;2.7;;;;;;;14.52;92.61035;936.5258;;;;
2021/08/30 11:22:17;;;;;;;0.3;0.3;;;;;;;14.72;94.32324;936.546;;;;
2021/08/30 11:24:43;;;;;;;0.8;0.5;;;;;;;15.09;91.41309;936.5517;;;;
2021/08/30 11:27:07;;;;;;;0.3;0.3;;;;;;;15.46;89.81836;936.5825;;;;
2021/08/30 11:29:33;;;;;;;0.4;0.3;;;;;;;15.28;90.16211;936.5322;;;;
2021/08/30 11:32:05;;;;;;;0.7;0.4;;;;;;;15.35;90.05957;936.5539;;;;
2021/08/30 11:34:30;;;;;;;0.3;0.2;;;;;;;15.61;88.57715;936.5385;;;;
2021/08/30 11:36:56;;;;;;;0.4;0.3;;;;;;;15.38;89.96289;936.5302;;;;
2021/08/30 11:39:21;;;;;;;0.2;0.2;;;;;;;15.47;89.09277;936.6273;;;;
2021/08/30 11:41:51;;;;;;;0.2;0.2;;;;;;;15.61;88.16309;936.7086;;;;
2021/08/30 11:44:16;;;;;;;0.4;0.2;;;;;;;15.55;87.7002;936.7155;;;;
2021/08/30 11:46:43;;;;;;;0.3;0.3;;;;;;;15.39;88.12891;936.7805;;;;
2021/08/30 11:49:08;;;;;;;0.5;0.4;;;;;;;15.04;89.46582;936.7808;;;;
2021/08/30 11:51:36;;;;;;;0.6;0.3;;;;;;;14.94;89.79199;936.8833;;;;
2021/08/30 11:54:01;;;;;;;0.4;0.3;;;;;;;14.89;90.51855;936.8878;;;;
2021/08/30 11:56:28;;;;;;;0.8;0.4;;;;;;;14.87;90.74316;936.9658;;;;
2021/08/30 11:58:52;;;;;;;0.4;0.3;;;;;;;15.04;90.10059;937.0005;;;;
2021/08/30 12:01:17;;;;;;;1.1;0.3;;;;;;;15.11;90.13867;936.9548;;;;
2021/08/30 12:03:42;;;;;;;0.5;0.3;;;;;;;15.06;90.39258;937.0003;;;;
2021/08/30 12:06:07;;;;;;;0.6;0.4;;;;;;;15.04;91.69238;936.9451;;;;
2021/08/30 12:08:32;;;;;;;0.6;0.5;;;;;;;15.2;91.37988;937.0197;;;;
2021/08/30 12:10:57;;;;;;;0.3;0.3;;;;;;;15.3;89.70215;937.0751;;;;
2021/08/30 12:13:44;;;;;;;1.5;0.5;;;;;;;15.21;89.08594;937.0765;;;;
2021/08/30 12:15:49;;;;;;;2.2;0.5;;;;;;;15.27;89.8584;937.0097;;;;
2021/08/30 12:18:13;;;;;;;0.3;0.3;;;;;;;15.29;89.33301;937.1306;;;;
2021/08/30 12:20:38;;;;;;;0.3;0.3;;;;;;;15.32;87.99902;937.0308;;;;
2021/08/30 12:23:04;;;;;;;0.4;0.3;;;;;;;15.28;87.30957;937.028;;;;
2021/08/30 12:25:29;;;;;;;0.4;0.4;;;;;;;15.23;88.07324;937.0094;;;;
2021/08/30 12:27:55;;;;;;;0.3;0.3;;;;;;;15.12;89.18262;937.0447;;;;
2021/08/30 12:30:20;;;;;;;0.2;0.2;;;;;;;14.99;88.83203;937.0905;;;;
2021/08/30 12:32:49;;;;;;;0.6;0.3;;;;;;;14.91;89.49805;937.1202;;;;
2021/08/30 12:35:20;;;;;;;0.4;0.2;;;;;;;14.83;89.76953;937.0847;;;;
2021/08/30 12:37:39;;;;;;;0.9;0.2;;;;;;;14.81;90.69922;937.0485;;;;
2021/08/30 12:40:06;;;;;;;0.4;0.4;;;;;;;14.78;91.35156;937.0528;;;;
2021/08/30 12:42:29;;;;;;;1.1;0.4;;;;;;;14.81;91.06836;937.0678;;;;
2021/08/30 12:44:54;;;;;;;0.3;0.3;;;;;;;14.74;90.73047;937.1373;;;;
2021/08/30 12:47:20;;;;;;;1.1;0.3;;;;;;;14.8;90.61719;937.1592;;;;
2021/08/30 12:49:45;;;;;;;1.7;0.9;;;;;;;14.77;90.85156;937.105;;;;
2021/08/30 12:52:11;;;;;;;0.9;0.7;;;;;;;14.77;91.34766;937.1275;;;;
2021/08/30 12:54:36;;;;;;;1.2;0.7;;;;;;;14.8;91.37598;937.173;;;;
2021/08/30 12:57:50;;;;;;;0.5;0.5;;;;;;;14.83;91.45313;937.1593;;;;
2021/08/30 13:00:15;;;;;;;0.8;0.6;;;;;;;14.7;92.93457;937.1954;;;;
2021/08/30 13:02:42;;;;;;;0.5;0.5;;;;;;;14.76;93.35156;937.1644;;;;
2021/08/30 13:05:05;;;;;;;1.4;0.7;;;;;;;14.89;92.34082;937.2221;;;;
2021/08/30 13:07:31;;;;;;;0.4;0.3;;;;;;;14.98;91.06934;937.2494;;;;
2021/08/30 13:09:57;;;;;;;0.5;0.5;;;;;;;15.02;90.54688;937.3109;;;;
2021/08/30 13:12:21;;;;;;;0.8;0.6;;;;;;;15.04;90.28516;937.3438;;;;
2021/08/30 13:14:46;;;;;;;0.9;0.6;;;;;;;15.11;90.48438;937.2886;;;;
2021/08/30 13:17:11;;;;;;;1.5;0.7;;;;;;;15.14;90.62891;937.3773;;;;
2021/08/30 13:19:36;;;;;;;0.7;0.4;;;;;;;15.17;88.83594;937.3809;;;;
2021/08/30 13:22:25;;;;;;;0.6;0.4;;;;;;;15.19;90.21289;937.2508;;;;
2021/08/30 13:25:18;;;;;;;1.1;1;;;;;;;15.25;90.32813;937.1688;;;;
2021/08/30 13:27:43;;;;;;;2.4;1.9;;;;;;;15.21;89.67383;937.1697;;;;
2021/08/30 13:30:08;;;;;;;2.3;1.4;;;;;;;15.23;90.43945;937.1569;;;;
2021/08/30 13:32:33;;;;;;;1.3;1.2;;;;;;;15.27;91.20898;937.1974;;;;
2021/08/30 13:34:58;;;;;;;2.1;1.4;;;;;;;15.28;91.40723;937.2166;;;;
2021/08/30 13:37:24;;;;;;;3.3;2.1;;;;;;;15.27;91.40723;937.2977;;;;
2021/08/30 13:39:48;;;;;;;2.1;1.8;;;;;;;15.23;90.05859;937.2844;;;;
2021/08/30 13:42:13;;;;;;;1;0.9;;;;;;;15.28;88.67285;937.3064;;;;
2021/08/30 13:44:38;;;;;;;0.8;0.8;;;;;;;15.28;87.95703;937.3312;;;;
2021/08/30 13:47:04;;;;;;;2;0.9;;;;;;;15.2;88.59668;937.4056;;;;
2021/08/30 13:49:29;;;;;;;1.3;1.2;;;;;;;15.15;90.14551;937.4686;;;;
2021/08/30 13:51:54;;;;;;;1.5;1;;;;;;;15.13;90.24805;937.5129;;;;
2021/08/30 13:54:20;;;;;;;0.7;0.7;;;;;;;15.13;89.5166;937.5122;;;;
2021/08/30 13:56:45;;;;;;;0.9;0.7;;;;;;;15.06;89.79297;937.5609;;;;
2021/08/30 13:59:10;;;;;;;1.2;1;;;;;;;14.93;90.15918;937.5344;;;;
2021/08/30 14:01:36;;;;;;;2.5;1.4;;;;;;;14.8;90.73047;937.5072;;;;
2021/08/30 14:04:01;;;;;;;1.7;1.4;;;;;;;14.39;92.59277;937.5397;;;;
2021/08/30 14:06:26;;;;;;;1.5;1.3;;;;;;;14.42;93.51074;937.5975;;;;
2021/08/30 14:08:51;;;;;;;7.2;4.5;;;;;;;14.46;93.45898;937.5991;;;;
2021/08/30 14:12:21;;;;;;;4.9;2.8;;;;;;;14.5;94.01172;937.558;;;;
2021/08/30 14:14:46;;;;;;;2;1.3;;;;;;;14.53;94.0293;937.4961;;;;
2021/08/30 14:17:12;;;;;;;1.8;1.5;;;;;;;14.85;94.79102;937.3547;;;;
2021/08/30 14:19:37;;;;;;;3.9;1.8;;;;;;;15.03;94.875;937.3918;;;;
2021/08/30 14:22:03;;;;;;;3.8;1.7;;;;;;;15.12;93.29004;937.4416;;;;
2021/08/30 14:24:28;;;;;;;1.5;1.2;;;;;;;15.27;92.89551;937.4324;;;;
2021/08/30 14:26:54;;;;;;;1.8;1.2;;;;;;;15.08;92.47461;937.4428;;;;
2021/08/30 14:29:20;;;;;;;1.7;0.9;;;;;;;15.47;91.21582;937.4579;;;;
2021/08/30 14:31:45;;;;;;;1;1;;;;;;;15.53;90.39746;937.4741;;;;
2021/08/30 14:34:10;;;;;;;1;0.9;;;;;;;15.49;91.89063;937.4786;;;;
2021/08/30 14:36:35;;;;;;;1.2;1.1;;;;;;;15.84;90.71484;937.5438;;;;
2021/08/30 14:39:00;;;;;;;1.3;1.1;;;;;;;16.04;88.84961;937.527;;;;
2021/08/30 14:41:25;;;;;;;0.7;0.6;;;;;;;16.03;87.59961;937.5425;;;;
2021/08/30 14:43:52;;;;;;;1.1;0.9;;;;;;;16.25;86.58984;937.4604;;;;
2021/08/30 14:46:15;;;;;;;3.3;1.2;;;;;;;16.38;85.67773;937.5084;;;;
2021/08/30 14:48:40;;;;;;;2;1.1;;;;;;;16.34;85.80957;937.427;;;;
2021/08/30 14:51:05;;;;;;;1.3;0.8;;;;;;;16.41;87.44434;937.475;;;;
2021/08/30 14:54:26;;;;;;;2;1.3;;;;;;;16.42;86.42676;937.4565;;;;
2021/08/30 14:57:32;;;;;;;0.8;0.8;;;;;;;16.78;85.53711;937.4333;;;;
2021/08/30 14:59:57;;;;;;;1.9;0.9;;;;;;;17.02;83.11621;937.4526;;;;
2021/08/30 15:02:23;;;;;;;0.8;0.8;;;;;;;17.15;83.25586;937.4086;;;;
2021/08/30 15:04:48;;;;;;;1.8;0.7;;;;;;;17.21;81.89844;937.4494;;;;
2021/08/30 15:07:13;;;;;;;1.5;0.5;;;;;;;17.2;81.70117;937.4994;;;;
2021/08/30 15:09:39;;;;;;;0.8;0.8;;;;;;;17.08;81.14453;937.3887;;;;
2021/08/30 15:12:03;;;;;;;1.4;0.6;;;;;;;17.01;81.87305;937.5215;;;;
2021/08/30 15:14:28;;;;;;;1.7;0.8;;;;;;;16.99;83.20215;937.5775;;;;
2021/08/30 15:16:53;;;;;;;0.9;0.7;;;;;;;16.78;82.24805;937.5853;;;;
2021/08/30 15:19:18;;;;;;;0.9;0.6;;;;;;;16.72;83.76465;937.5212;;;;
2021/08/30 15:21:43;;;;;;;0.7;0.7;;;;;;;16.71;83.05664;937.5278;;;;
2021/08/30 15:24:10;;;;;;;2.5;0.7;;;;;;;16.76;83.59961;937.5575;;;;
2021/08/30 15:26:35;;;;;;;0.7;0.7;;;;;;;16.74;82.79688;937.5634;;;;
2021/08/30 15:29:00;;;;;;;7.5;3.7;;;;;;;16.87;82.46191;937.5754;;;;
2021/08/30 15:31:25;;;;;;;3.3;1.7;;;;;;;16.68;83.53711;937.6038;;;;
2021/08/30 15:33:50;;;;;;;1;0.9;;;;;;;16.65;83.3916;937.6329;;;;
2021/08/30 15:36:15;;;;;;;0.9;0.9;;;;;;;16.67;83.62891;937.6898;;;;
2021/08/30 15:38:40;;;;;;;0.8;0.8;;;;;;;16.69;84.80371;937.6703;;;;
2021/08/30 15:41:06;;;;;;;1.4;0.9;;;;;;;16.58;85.54492;937.6923;;;;
2021/08/30 15:43:32;;;;;;;2;1;;;;;;;16.45;85.125;937.6797;;;;
2021/08/30 15:45:57;;;;;;;1.4;0.9;;;;;;;16.38;85.10059;937.6514;;;;